Aberdeen Regional Airport
KABR : now visible

Airfield :











YOU CAN JOIN US ON...

 
LOGIN :

Register | Disclaimer

   EN    FR    IT 

 









Legend :    VFR   Marginal VFR   IFR   Intensive IFR   Very Intensive IFR
Visi :
Ceiling :
>= 8 km
>= 3000ft
5 to 8 km
1000 to 3000 ft
1500m to 5 km
500 to 1000 ft
800 to 1500m
200 to 500 ft
< 800m
< 200 ft
Symbols :   Thunderstorms  Fog  Heavy snow  Heavy precipitations  Wind > 20 kt






- Airport Elevation : 1302 ft
- IATA code : ABR


KABR - Aberdeen Regional

CURRENT METAR :
  • 221113Z AUTO 05009KT 3/4SM -SN BR FEW005 BKN009 OVC016 M02/M03 A3015 RMK AO2 P0003 T10171033 $

EXPIRED METARs :
  • 221103Z AUTO 06009KT 3/4SM -SN BR FEW005 BKN011 OVC016 M02/M03 A3015 RMK AO2 P0002 T10171033 $
  • 221053Z AUTO 05008KT 1SM -SN BR FEW005 OVC015 M02/M03 A3015 RMK AO2 SLP226 P0007 T10171028 $
  • 221028Z AUTO 05009KT 1SM -SN BR FEW006 OVC012 M02/M03 A3015 RMK AO2 P0005 T10171033 $
  • 220953Z AUTO 05010KT 3/4SM -SN BR VV011 M02/M03 A3013 RMK AO2 SLP217 P0004 T10171033 $
  • 220937Z AUTO 05011KT 3/4SM -SN BR FEW007 OVC013 M02/M03 A3014 RMK AO2 P0003 T10171033 $
  • 220923Z AUTO 05013KT 1 1/4SM -SN BR FEW007 OVC019 M02/M03 A3014 RMK AO2 P0002 T10171033 $
  • 220902Z AUTO 05009KT 1 1/2SM -SN BR FEW008 OVC015 M02/M03 A3014 RMK AO2 P0001 T10171033 $
  • 220853Z AUTO 06011KT 3/4SM -SN BR FEW007 OVC011 M02/M03 A3013 RMK AO2 SLP219 P0003 60015 T10171033 58003 $

TAF KABR
Valid from the 22 at 06:00 until the 23 at 06:00 UTC


220537Z 2206/2306 05010KT 1SM -SN OVC010
FM220700 06010KT 1/2SM SN OVC009
FM221600 03017G25KT 3/4SM -SN BLSN OVC008
FM222000 02014G24KT 2SM -SN BLSN OVC010
FM230100 36012KT P6SM OVC010
KZMP FIR / North America



MET'MAP, your aeronautical weather chart ! - Copyright ORBIFLY December 2007 - Disclaimer

ORBIFLY MET'MAP TEAM :

Programming & Development : Alexandra Zaïnal
Concept & original design : Baudouin d'Aumeries
Assistance for programming : Marc-Olivier Méhu
Technical & hardware support : Manuel Goepfert

Contact : metmap@orbifly.com




SOURCES & CREDITS :

   NOAA       Earth
Advisory